sensor_id;sensor_type;location;lat;lon;timestamp;pressure;altitude;pressure_sealevel;temperature;humidity
64115;BME280;62188;35.640;139.748;2023-07-28T00:01:58;101524.56;;;30.09;50.08
64115;BME280;62188;35.640;139.748;2023-07-28T00:04:23;101533.81;;;29.90;50.83
64115;BME280;62188;35.640;139.748;2023-07-28T00:06:48;101520.36;;;28.98;53.08
64115;BME280;62188;35.640;139.748;2023-07-28T00:09:13;101520.77;;;29.77;51.19
64115;BME280;62188;35.640;139.748;2023-07-28T00:11:39;101521.85;;;30.52;50.72
64115;BME280;62188;35.640;139.748;2023-07-28T00:14:03;101524.68;;;29.01;52.65
64115;BME280;62188;35.640;139.748;2023-07-28T00:16:29;101528.68;;;28.25;53.51
64115;BME280;62188;35.640;139.748;2023-07-28T00:18:54;101520.36;;;29.90;50.78
64115;BME280;62188;35.640;139.748;2023-07-28T00:21:20;101524.60;;;30.32;50.42
64115;BME280;62188;35.640;139.748;2023-07-28T00:23:45;101526.90;;;30.25;51.23
64115;BME280;62188;35.640;139.748;2023-07-28T00:26:10;101519.97;;;30.03;51.09
64115;BME280;62188;35.640;139.748;2023-07-28T00:28:36;101515.93;;;30.36;50.83
64115;BME280;62188;35.640;139.748;2023-07-28T00:31:01;101517.11;;;30.60;50.14
64115;BME280;62188;35.640;139.748;2023-07-28T00:33:27;101514.41;;;30.67;49.36
64115;BME280;62188;35.640;139.748;2023-07-28T00:35:52;101514.49;;;30.33;49.69
64115;BME280;62188;35.640;139.748;2023-07-28T00:38:17;101517.37;;;29.77;51.28
64115;BME280;62188;35.640;139.748;2023-07-28T00:40:43;101520.12;;;30.29;50.48
64115;BME280;62188;35.640;139.748;2023-07-28T00:43:08;101516.17;;;30.22;50.26
64115;BME280;62188;35.640;139.748;2023-07-28T00:45:35;101512.27;;;30.12;50.95
64115;BME280;62188;35.640;139.748;2023-07-28T00:47:58;101514.75;;;31.03;49.53
64115;BME280;62188;35.640;139.748;2023-07-28T00:50:23;101520.29;;;30.52;49.63
64115;BME280;62188;35.640;139.748;2023-07-28T00:52:49;101514.23;;;29.73;50.58
64115;BME280;62188;35.640;139.748;2023-07-28T00:55:15;101513.81;;;30.41;49.68
64115;BME280;62188;35.640;139.748;2023-07-28T00:57:40;101509.15;;;30.92;48.18
64115;BME280;62188;35.640;139.748;2023-07-28T01:00:06;101504.16;;;31.35;47.71
64115;BME280;62188;35.640;139.748;2023-07-28T01:02:31;101503.10;;;30.91;47.74
64115;BME280;62188;35.640;139.748;2023-07-28T01:04:56;101506.99;;;30.89;48.10
64115;BME280;62188;35.640;139.748;2023-07-28T01:07:27;101501.88;;;31.72;46.91
64115;BME280;62188;35.640;139.748;2023-07-28T01:09:52;101501.05;;;31.50;46.77
64115;BME280;62188;35.640;139.748;2023-07-28T01:12:12;101499.99;;;31.63;46.31
64115;BME280;62188;35.640;139.748;2023-07-28T01:14:37;101498.91;;;31.61;46.45
64115;BME280;62188;35.640;139.748;2023-07-28T01:17:02;101500.42;;;30.51;48.38
64115;BME280;62188;35.640;139.748;2023-07-28T01:19:27;101494.94;;;31.43;47.04
64115;BME280;62188;35.640;139.748;2023-07-28T01:22:00;101484.45;;;31.52;47.31
64115;BME280;62188;35.640;139.748;2023-07-28T01:24:27;101485.06;;;31.39;46.79
64115;BME280;62188;35.640;139.748;2023-07-28T01:26:43;101488.06;;;31.59;46.03
64115;BME280;62188;35.640;139.748;2023-07-28T01:29:09;101488.98;;;31.00;46.48
64115;BME280;62188;35.640;139.748;2023-07-28T01:31:35;101489.46;;;30.79;47.62
64115;BME280;62188;35.640;139.748;2023-07-28T01:33:59;101490.11;;;31.67;46.51
64115;BME280;62188;35.640;139.748;2023-07-28T01:36:24;101490.40;;;31.18;46.27
64115;BME280;62188;35.640;139.748;2023-07-28T01:38:50;101487.65;;;30.72;47.50
64115;BME280;62188;35.640;139.748;2023-07-28T01:41:15;101492.92;;;30.91;46.39
64115;BME280;62188;35.640;139.748;2023-07-28T01:43:41;101487.06;;;30.69;46.92
64115;BME280;62188;35.640;139.748;2023-07-28T01:46:06;101480.14;;;31.83;45.65
64115;BME280;62188;35.640;139.748;2023-07-28T01:48:32;101475.19;;;31.49;45.56
64115;BME280;62188;35.640;139.748;2023-07-28T01:50:57;101474.25;;;31.37;45.74
64115;BME280;62188;35.640;139.748;2023-07-28T01:53:23;101471.33;;;31.30;45.77
64115;BME280;62188;35.640;139.748;2023-07-28T01:55:48;101471.92;;;31.48;45.31
64115;BME280;62188;35.640;139.748;2023-07-28T01:58:14;101465.79;;;31.72;45.53
64115;BME280;62188;35.640;139.748;2023-07-28T02:00:38;101465.80;;;31.41;45.05
64115;BME280;62188;35.640;139.748;2023-07-28T02:03:04;101460.04;;;31.53;45.33
64115;BME280;62188;35.640;139.748;2023-07-28T02:05:30;101460.07;;;31.62;45.38
64115;BME280;62188;35.640;139.748;2023-07-28T02:07:55;101463.35;;;32.29;44.38
64115;BME280;62188;35.640;139.748;2023-07-28T02:10:21;101462.74;;;32.28;44.06
64115;BME280;62188;35.640;139.748;2023-07-28T02:12:45;101462.01;;;32.55;43.90
64115;BME280;62188;35.640;139.748;2023-07-28T02:15:12;101466.00;;;31.22;44.72
64115;BME280;62188;35.640;139.748;2023-07-28T02:17:36;101456.03;;;31.25;45.03
64115;BME280;62188;35.640;139.748;2023-07-28T02:20:01;101451.31;;;31.30;44.95
64115;BME280;62188;35.640;139.748;2023-07-28T02:22:26;101448.71;;;31.47;45.15
64115;BME280;62188;35.640;139.748;2023-07-28T02:24:52;101458.57;;;32.55;44.07
64115;BME280;62188;35.640;139.748;2023-07-28T02:27:17;101454.75;;;31.66;44.99
64115;BME280;62188;35.640;139.748;2023-07-28T02:29:42;101454.66;;;32.05;43.62
64115;BME280;62188;35.640;139.748;2023-07-28T02:32:09;101453.82;;;31.99;44.04
64115;BME280;62188;35.640;139.748;2023-07-28T02:34:33;101452.65;;;32.49;42.88
64115;BME280;62188;35.640;139.748;2023-07-28T02:36:59;101457.33;;;32.47;42.18
64115;BME280;62188;35.640;139.748;2023-07-28T02:39:24;101452.08;;;31.60;44.38
64115;BME280;62188;35.640;139.748;2023-07-28T02:41:49;101449.03;;;32.43;42.49
64115;BME280;62188;35.640;139.748;2023-07-28T02:44:15;101443.86;;;32.53;42.04
64115;BME280;62188;35.640;139.748;2023-07-28T02:46:40;101445.59;;;32.60;40.87
64115;BME280;62188;35.640;139.748;2023-07-28T02:49:05;101443.21;;;33.07;40.28
64115;BME280;62188;35.640;139.748;2023-07-28T02:51:31;101442.43;;;31.98;42.24
64115;BME280;62188;35.640;139.748;2023-07-28T02:53:56;101443.33;;;32.19;41.46
64115;BME280;62188;35.640;139.748;2023-07-28T02:56:22;101441.12;;;32.27;41.65
64115;BME280;62188;35.640;139.748;2023-07-28T02:58:48;101428.79;;;32.87;40.49
64115;BME280;62188;35.640;139.748;2023-07-28T03:01:13;101433.48;;;31.98;41.17
64115;BME280;62188;35.640;139.748;2023-07-28T03:03:38;101430.90;;;32.15;41.34
64115;BME280;62188;35.640;139.748;2023-07-28T03:06:03;101434.59;;;31.61;42.79
64115;BME280;62188;35.640;139.748;2023-07-28T03:08:30;101433.82;;;31.37;41.98
64115;BME280;62188;35.640;139.748;2023-07-28T03:10:58;101438.01;;;30.98;41.79
64115;BME280;62188;35.640;139.748;2023-07-28T03:13:20;101427.79;;;31.33;41.27
64115;BME280;62188;35.640;139.748;2023-07-28T03:15:45;101425.65;;;32.04;40.88
64115;BME280;62188;35.640;139.748;2023-07-28T03:18:10;101420.18;;;31.06;42.05
64115;BME280;62188;35.640;139.748;2023-07-28T03:20:36;101421.41;;;30.96;42.46
64115;BME280;62188;35.640;139.748;2023-07-28T03:23:01;101412.74;;;32.05;40.77
64115;BME280;62188;35.640;139.748;2023-07-28T03:25:27;101417.66;;;31.50;41.04
64115;BME280;62188;35.640;139.748;2023-07-28T03:27:51;101414.12;;;32.25;39.93
64115;BME280;62188;35.640;139.748;2023-07-28T03:30:18;101412.51;;;32.35;38.79
64115;BME280;62188;35.640;139.748;2023-07-28T03:32:43;101413.07;;;31.84;39.50
64115;BME280;62188;35.640;139.748;2023-07-28T03:35:13;101413.22;;;31.98;39.06
64115;BME280;62188;35.640;139.748;2023-07-28T03:37:33;101408.12;;;32.52;37.76
64115;BME280;62188;35.640;139.748;2023-07-28T03:39:59;101412.39;;;32.27;38.19
64115;BME280;62188;35.640;139.748;2023-07-28T03:42:24;101414.93;;;32.19;37.47
64115;BME280;62188;35.640;139.748;2023-07-28T03:44:50;101411.49;;;32.00;39.36
64115;BME280;62188;35.640;139.748;2023-07-28T03:47:14;101410.82;;;32.59;35.71
64115;BME280;62188;35.640;139.748;2023-07-28T03:49:40;101407.70;;;33.09;34.50
64115;BME280;62188;35.640;139.748;2023-07-28T03:52:05;101403.73;;;32.93;37.05
64115;BME280;62188;35.640;139.748;2023-07-28T03:54:30;101401.02;;;32.03;36.80
64115;BME280;62188;35.640;139.748;2023-07-28T03:56:56;101402.60;;;31.91;40.01
64115;BME280;62188;35.640;139.748;2023-07-28T03:59:21;101406.24;;;32.12;38.66
64115;BME280;62188;35.640;139.748;2023-07-28T04:01:45;101399.14;;;32.97;37.39
64115;BME280;62188;35.640;139.748;2023-07-28T04:04:11;101410.75;;;32.78;37.84
64115;BME280;62188;35.640;139.748;2023-07-28T04:06:42;101396.07;;;33.03;38.10
64115;BME280;62188;35.640;139.748;2023-07-28T04:09:02;101399.07;;;33.04;38.44
64115;BME280;62188;35.640;139.748;2023-07-28T04:11:27;101393.17;;;32.81;38.33
64115;BME280;62188;35.640;139.748;2023-07-28T04:13:52;101397.33;;;33.04;38.54
64115;BME280;62188;35.640;139.748;2023-07-28T04:16:17;101399.54;;;32.38;39.71
64115;BME280;62188;35.640;139.748;2023-07-28T04:18:42;101385.72;;;32.84;39.17
64115;BME280;62188;35.640;139.748;2023-07-28T04:21:07;101384.91;;;32.29;39.89
64115;BME280;62188;35.640;139.748;2023-07-28T04:23:33;101379.10;;;32.31;40.26
64115;BME280;62188;35.640;139.748;2023-07-28T04:25:59;101385.57;;;32.33;40.30
64115;BME280;62188;35.640;139.748;2023-07-28T04:28:24;101385.04;;;32.15;40.20
64115;BME280;62188;35.640;139.748;2023-07-28T04:30:49;101378.90;;;32.40;40.01
64115;BME280;62188;35.640;139.748;2023-07-28T04:33:14;101374.61;;;32.49;39.28
64115;BME280;62188;35.640;139.748;2023-07-28T04:35:39;101375.36;;;32.71;39.36
64115;BME280;62188;35.640;139.748;2023-07-28T04:38:05;101383.38;;;32.74;39.59
64115;BME280;62188;35.640;139.748;2023-07-28T04:40:30;101372.42;;;32.43;39.78
64115;BME280;62188;35.640;139.748;2023-07-28T04:42:56;101374.32;;;32.48;39.98
64115;BME280;62188;35.640;139.748;2023-07-28T04:45:21;101375.26;;;32.32;39.80
64115;BME280;62188;35.640;139.748;2023-07-28T04:47:47;101375.12;;;32.80;39.93
64115;BME280;62188;35.640;139.748;2023-07-28T04:50:12;101373.80;;;32.62;39.90
64115;BME280;62188;35.640;139.748;2023-07-28T04:52:38;101380.56;;;32.34;39.77
64115;BME280;62188;35.640;139.748;2023-07-28T04:55:03;101366.23;;;31.85;40.69
64115;BME280;62188;35.640;139.748;2023-07-28T04:57:29;101368.79;;;31.96;40.75
64115;BME280;62188;35.640;139.748;2023-07-28T04:59:53;101361.41;;;32.13;39.74
64115;BME280;62188;35.640;139.748;2023-07-28T05:02:19;101369.51;;;31.93;40.29
64115;BME280;62188;35.640;139.748;2023-07-28T05:04:44;101365.13;;;32.29;39.33
64115;BME280;62188;35.640;139.748;2023-07-28T05:07:12;101364.63;;;31.56;39.50
64115;BME280;62188;35.640;139.748;2023-07-28T05:09:35;101361.86;;;31.29;39.52
64115;BME280;62188;35.640;139.748;2023-07-28T05:12:00;101350.92;;;31.56;39.90
64115;BME280;62188;35.640;139.748;2023-07-28T05:14:25;101358.47;;;31.81;40.10
64115;BME280;62188;35.640;139.748;2023-07-28T05:16:52;101359.13;;;32.15;39.79
64115;BME280;62188;35.640;139.748;2023-07-28T05:19:16;101357.69;;;31.31;40.05
64115;BME280;62188;35.640;139.748;2023-07-28T05:21:41;101353.88;;;31.61;39.19
64115;BME280;62188;35.640;139.748;2023-07-28T05:24:06;101359.80;;;31.19;39.44
64115;BME280;62188;35.640;139.748;2023-07-28T05:26:32;101361.63;;;31.35;38.60
64115;BME280;62188;35.640;139.748;2023-07-28T05:28:57;101353.57;;;31.09;38.75
64115;BME280;62188;35.640;139.748;2023-07-28T05:31:22;101357.86;;;31.49;38.45
64115;BME280;62188;35.640;139.748;2023-07-28T05:33:48;101356.48;;;31.59;38.83
64115;BME280;62188;35.640;139.748;2023-07-28T05:36:13;101357.36;;;31.59;37.94
64115;BME280;62188;35.640;139.748;2023-07-28T05:38:39;101369.34;;;31.40;38.14
64115;BME280;62188;35.640;139.748;2023-07-28T05:41:05;101350.62;;;31.32;37.82
64115;BME280;62188;35.640;139.748;2023-07-28T05:43:29;101356.00;;;31.25;38.31
64115;BME280;62188;35.640;139.748;2023-07-28T05:45:55;101349.08;;;31.91;37.57
64115;BME280;62188;35.640;139.748;2023-07-28T05:48:20;101349.27;;;31.77;34.70
64115;BME280;62188;35.640;139.748;2023-07-28T05:50:45;101350.19;;;32.18;34.22
64115;BME280;62188;35.640;139.748;2023-07-28T05:53:10;101348.44;;;31.87;34.69
64115;BME280;62188;35.640;139.748;2023-07-28T05:55:35;101350.09;;;31.34;33.93
64115;BME280;62188;35.640;139.748;2023-07-28T05:58:00;101345.62;;;31.44;34.74
64115;BME280;62188;35.640;139.748;2023-07-28T06:00:26;101352.17;;;31.58;36.65
64115;BME280;62188;35.640;139.748;2023-07-28T06:02:51;101350.72;;;31.78;36.21
64115;BME280;62188;35.640;139.748;2023-07-28T06:05:16;101356.94;;;30.78;38.17
64115;BME280;62188;35.640;139.748;2023-07-28T06:07:42;101358.67;;;31.74;37.82
64115;BME280;62188;35.640;139.748;2023-07-28T06:10:08;101344.83;;;31.71;38.17
64115;BME280;62188;35.640;139.748;2023-07-28T06:12:32;101341.92;;;31.82;39.10
64115;BME280;62188;35.640;139.748;2023-07-28T06:14:57;101341.77;;;31.61;38.76
64115;BME280;62188;35.640;139.748;2023-07-28T06:17:23;101347.81;;;31.82;39.42
64115;BME280;62188;35.640;139.748;2023-07-28T06:19:48;101343.33;;;31.89;40.53
64115;BME280;62188;35.640;139.748;2023-07-28T06:22:13;101341.59;;;31.63;41.40
64115;BME280;62188;35.640;139.748;2023-07-28T06:24:39;101337.62;;;31.17;42.00
64115;BME280;62188;35.640;139.748;2023-07-28T06:27:04;101337.61;;;30.91;43.09
64115;BME280;62188;35.640;139.748;2023-07-28T06:29:30;101335.38;;;30.60;43.65
64115;BME280;62188;35.640;139.748;2023-07-28T06:31:55;101334.17;;;30.69;43.10
64115;BME280;62188;35.640;139.748;2023-07-28T06:34:21;101338.21;;;31.16;41.51
64115;BME280;62188;35.640;139.748;2023-07-28T06:36:46;101338.70;;;31.58;40.65
64115;BME280;62188;35.640;139.748;2023-07-28T06:39:11;101337.77;;;30.88;42.04
64115;BME280;62188;35.640;139.748;2023-07-28T06:41:37;101330.69;;;31.57;40.81
64115;BME280;62188;35.640;139.748;2023-07-28T06:44:04;101328.03;;;31.43;41.57
64115;BME280;62188;35.640;139.748;2023-07-28T06:46:33;101330.89;;;31.45;41.78
64115;BME280;62188;35.640;139.748;2023-07-28T06:48:59;101336.40;;;31.87;41.28
64115;BME280;62188;35.640;139.748;2023-07-28T06:51:20;101330.32;;;31.04;41.36
64115;BME280;62188;35.640;139.748;2023-07-28T06:53:49;101334.92;;;30.70;43.75
64115;BME280;62188;35.640;139.748;2023-07-28T06:56:10;101315.99;;;31.48;42.01
64115;BME280;62188;35.640;139.748;2023-07-28T06:58:35;101324.68;;;31.02;42.64
64115;BME280;62188;35.640;139.748;2023-07-28T07:01:02;101330.44;;;30.97;42.53
64115;BME280;62188;35.640;139.748;2023-07-28T07:03:25;101336.64;;;30.65;43.09
64115;BME280;62188;35.640;139.748;2023-07-28T07:05:53;101346.54;;;30.49;43.31
64115;BME280;62188;35.640;139.748;2023-07-28T07:08:16;101351.22;;;30.57;43.05
64115;BME280;62188;35.640;139.748;2023-07-28T07:13:06;101346.16;;;31.00;42.58
64115;BME280;62188;35.640;139.748;2023-07-28T07:15:34;101348.21;;;30.08;43.24
64115;BME280;62188;35.640;139.748;2023-07-28T07:17:57;101348.90;;;30.32;41.82
64115;BME280;62188;35.640;139.748;2023-07-28T07:20:23;101340.40;;;30.62;41.64
64115;BME280;62188;35.640;139.748;2023-07-28T07:22:47;101334.74;;;30.75;41.67
64115;BME280;62188;35.640;139.748;2023-07-28T07:25:15;101337.12;;;30.88;41.72
64115;BME280;62188;35.640;139.748;2023-07-28T07:27:40;101329.61;;;31.09;41.19
64115;BME280;62188;35.640;139.748;2023-07-28T07:30:04;101333.51;;;30.74;42.08
64115;BME280;62188;35.640;139.748;2023-07-28T07:32:29;101335.31;;;30.35;43.14
64115;BME280;62188;35.640;139.748;2023-07-28T07:34:54;101338.71;;;30.80;42.89
64115;BME280;62188;35.640;139.748;2023-07-28T07:37:19;101341.37;;;30.92;42.08
64115;BME280;62188;35.640;139.748;2023-07-28T07:39:44;101347.96;;;29.36;45.19
64115;BME280;62188;35.640;139.748;2023-07-28T07:42:10;101348.14;;;29.19;45.39
64115;BME280;62188;35.640;139.748;2023-07-28T07:44:35;101343.61;;;30.60;43.87
64115;BME280;62188;35.640;139.748;2023-07-28T07:47:02;101341.62;;;30.99;42.84
64115;BME280;62188;35.640;139.748;2023-07-28T07:49:26;101343.00;;;31.04;42.31
64115;BME280;62188;35.640;139.748;2023-07-28T07:51:51;101347.45;;;30.85;42.06
64115;BME280;62188;35.640;139.748;2023-07-28T07:54:16;101349.08;;;31.24;41.78
64115;BME280;62188;35.640;139.748;2023-07-28T07:56:41;101353.03;;;30.89;41.94
64115;BME280;62188;35.640;139.748;2023-07-28T07:59:07;101355.71;;;30.47;42.38
64115;BME280;62188;35.640;139.748;2023-07-28T08:01:32;101353.35;;;30.55;42.40
64115;BME280;62188;35.640;139.748;2023-07-28T08:03:57;101354.88;;;30.66;42.29
64115;BME280;62188;35.640;139.748;2023-07-28T08:06:23;101352.84;;;31.10;41.81
64115;BME280;62188;35.640;139.748;2023-07-28T08:08:49;101354.72;;;30.50;42.00
64115;BME280;62188;35.640;139.748;2023-07-28T08:11:13;101353.96;;;30.58;41.64
64115;BME280;62188;35.640;139.748;2023-07-28T08:13:38;101349.34;;;30.83;41.96
64115;BME280;62188;35.640;139.748;2023-07-28T08:16:04;101355.08;;;31.02;41.57
64115;BME280;62188;35.640;139.748;2023-07-28T08:18:29;101358.79;;;30.53;41.73
64115;BME280;62188;35.640;139.748;2023-07-28T08:20:54;101361.02;;;30.55;41.93
64115;BME280;62188;35.640;139.748;2023-07-28T08:23:20;101363.69;;;29.77;42.56
64115;BME280;62188;35.640;139.748;2023-07-28T08:25:44;101365.78;;;30.60;42.34
64115;BME280;62188;35.640;139.748;2023-07-28T08:28:10;101375.70;;;29.54;43.72
64115;BME280;62188;35.640;139.748;2023-07-28T08:30:35;101380.00;;;29.79;43.56
64115;BME280;62188;35.640;139.748;2023-07-28T08:33:01;101382.48;;;29.67;44.63
64115;BME280;62188;35.640;139.748;2023-07-28T08:35:26;101383.20;;;30.53;43.26
64115;BME280;62188;35.640;139.748;2023-07-28T08:37:51;101383.97;;;30.65;42.59
64115;BME280;62188;35.640;139.748;2023-07-28T08:40:17;101389.12;;;30.62;42.56
64115;BME280;62188;35.640;139.748;2023-07-28T08:42:42;101389.36;;;30.78;42.59
64115;BME280;62188;35.640;139.748;2023-07-28T08:45:09;101388.10;;;30.37;43.20
64115;BME280;62188;35.640;139.748;2023-07-28T08:47:33;101393.40;;;30.53;43.60
64115;BME280;62188;35.640;139.748;2023-07-28T08:49:58;101403.69;;;30.10;43.64
64115;BME280;62188;35.640;139.748;2023-07-28T08:52:23;101398.22;;;30.27;42.97
64115;BME280;62188;35.640;139.748;2023-07-28T08:54:48;101399.61;;;30.22;42.98
64115;BME280;62188;35.640;139.748;2023-07-28T08:57:14;101405.71;;;29.89;44.02
64115;BME280;62188;35.640;139.748;2023-07-28T08:59:39;101403.15;;;30.13;43.54
64115;BME280;62188;35.640;139.748;2023-07-28T09:02:04;101410.57;;;30.31;43.80
64115;BME280;62188;35.640;139.748;2023-07-28T09:04:30;101409.26;;;30.44;43.80
64115;BME280;62188;35.640;139.748;2023-07-28T09:06:55;101412.06;;;30.45;44.12
64115;BME280;62188;35.640;139.748;2023-07-28T09:09:22;101412.79;;;29.89;45.24
64115;BME280;62188;35.640;139.748;2023-07-28T09:11:47;101418.61;;;30.27;44.60
64115;BME280;62188;35.640;139.748;2023-07-28T09:14:13;101418.39;;;30.34;44.91
64115;BME280;62188;35.640;139.748;2023-07-28T09:16:36;101417.07;;;30.49;44.69
64115;BME280;62188;35.640;139.748;2023-07-28T09:19:06;101421.18;;;29.83;45.46
64115;BME280;62188;35.640;139.748;2023-07-28T09:21:27;101422.57;;;29.94;45.37
64115;BME280;62188;35.640;139.748;2023-07-28T09:23:52;101427.39;;;30.09;45.57
64115;BME280;62188;35.640;139.748;2023-07-28T09:26:17;101432.53;;;29.76;45.65
64115;BME280;62188;35.640;139.748;2023-07-28T09:28:43;101435.35;;;29.85;45.06
64115;BME280;62188;35.640;139.748;2023-07-28T09:31:08;101440.69;;;30.16;45.96
64115;BME280;62188;35.640;139.748;2023-07-28T09:33:34;101440.21;;;29.99;45.96
64115;BME280;62188;35.640;139.748;2023-07-28T09:36:05;101440.94;;;30.00;46.17
64115;BME280;62188;35.640;139.748;2023-07-28T09:38:25;101446.20;;;30.26;45.42
64115;BME280;62188;35.640;139.748;2023-07-28T09:40:50;101453.18;;;30.01;45.32
64115;BME280;62188;35.640;139.748;2023-07-28T09:43:14;101454.53;;;29.30;45.53
64115;BME280;62188;35.640;139.748;2023-07-28T09:45:40;101455.33;;;29.31;46.13
64115;BME280;62188;35.640;139.748;2023-07-28T09:48:07;101459.17;;;29.41;45.92
64115;BME280;62188;35.640;139.748;2023-07-28T09:50:33;101461.43;;;29.63;45.17
64115;BME280;62188;35.640;139.748;2023-07-28T09:53:02;101466.22;;;30.34;45.20
64115;BME280;62188;35.640;139.748;2023-07-28T09:55:21;101466.15;;;30.00;45.22
64115;BME280;62188;35.640;139.748;2023-07-28T09:57:49;101463.90;;;29.95;45.57
64115;BME280;62188;35.640;139.748;2023-07-28T10:00:13;101464.32;;;28.89;47.66
64115;BME280;62188;35.640;139.748;2023-07-28T10:02:37;101464.26;;;29.08;47.80
64115;BME280;62188;35.640;139.748;2023-07-28T10:05:03;101465.70;;;29.81;46.13
64115;BME280;62188;35.640;139.748;2023-07-28T10:07:27;101471.66;;;30.00;46.09
64115;BME280;62188;35.640;139.748;2023-07-28T10:09:53;101478.23;;;29.69;45.91
64115;BME280;62188;35.640;139.748;2023-07-28T10:12:24;101479.70;;;29.46;46.62
64115;BME280;62188;35.640;139.748;2023-07-28T10:14:43;101480.99;;;29.42;46.70
64115;BME280;62188;35.640;139.748;2023-07-28T10:17:15;101475.89;;;30.06;46.58
64115;BME280;62188;35.640;139.748;2023-07-28T10:19:36;101476.02;;;29.51;46.91
64115;BME280;62188;35.640;139.748;2023-07-28T10:22:07;101473.65;;;29.60;46.88
64115;BME280;62188;35.640;139.748;2023-07-28T10:26:50;101480.60;;;29.01;47.29
64115;BME280;62188;35.640;139.748;2023-07-28T10:29:16;101488.46;;;29.24;46.79
64115;BME280;62188;35.640;139.748;2023-07-28T10:34:06;101500.10;;;29.49;47.20
64115;BME280;62188;35.640;139.748;2023-07-28T10:36:35;101502.25;;;29.86;47.50
64115;BME280;62188;35.640;139.748;2023-07-28T10:39:00;101506.07;;;29.38;48.08
64115;BME280;62188;35.640;139.748;2023-07-28T10:41:21;101510.08;;;29.64;47.93
64115;BME280;62188;35.640;139.748;2023-07-28T10:43:47;101515.06;;;29.42;47.86
64115;BME280;62188;35.640;139.748;2023-07-28T10:46:15;101519.10;;;29.53;47.80
64115;BME280;62188;35.640;139.748;2023-07-28T10:48:40;101520.62;;;29.09;48.38
64115;BME280;62188;35.640;139.748;2023-07-28T10:51:02;101520.30;;;29.22;48.45
64115;BME280;62188;35.640;139.748;2023-07-28T10:53:28;101522.10;;;29.37;48.08
64115;BME280;62188;35.640;139.748;2023-07-28T10:55:54;101524.42;;;29.29;48.68
64115;BME280;62188;35.640;139.748;2023-07-28T10:58:20;101533.36;;;29.44;48.82
64115;BME280;62188;35.640;139.748;2023-07-28T11:00:43;101529.30;;;29.33;48.55
64115;BME280;62188;35.640;139.748;2023-07-28T11:03:09;101535.70;;;29.61;48.12
64115;BME280;62188;35.640;139.748;2023-07-28T11:05:33;101537.19;;;29.41;48.63
64115;BME280;62188;35.640;139.748;2023-07-28T11:08:00;101544.40;;;29.52;48.66
64115;BME280;62188;35.640;139.748;2023-07-28T11:10:25;101552.72;;;29.42;48.61
64115;BME280;62188;35.640;139.748;2023-07-28T11:12:51;101562.78;;;29.54;48.96
64115;BME280;62188;35.640;139.748;2023-07-28T11:15:17;101569.21;;;29.31;49.57
64115;BME280;62188;35.640;139.748;2023-07-28T11:17:41;101574.30;;;29.47;48.98
64115;BME280;62188;35.640;139.748;2023-07-28T11:22:32;101581.78;;;29.58;48.77
64115;BME280;62188;35.640;139.748;2023-07-28T11:24:56;101585.42;;;28.96;49.25
64115;BME280;62188;35.640;139.748;2023-07-28T11:27:21;101592.93;;;29.22;49.19
64115;BME280;62188;35.640;139.748;2023-07-28T11:29:47;101603.63;;;28.88;50.04
64115;BME280;62188;35.640;139.748;2023-07-28T11:32:12;101605.64;;;28.61;51.28
64115;BME280;62188;35.640;139.748;2023-07-28T11:34:37;101606.70;;;29.36;50.46
64115;BME280;62188;35.640;139.748;2023-07-28T11:37:03;101607.87;;;28.90;50.24
64115;BME280;62188;35.640;139.748;2023-07-28T11:39:28;101608.58;;;29.05;49.78
64115;BME280;62188;35.640;139.748;2023-07-28T11:41:53;101607.05;;;28.72;50.07
64115;BME280;62188;35.640;139.748;2023-07-28T11:44:19;101608.24;;;29.33;49.44
64115;BME280;62188;35.640;139.748;2023-07-28T11:46:44;101611.58;;;28.98;49.45
64115;BME280;62188;35.640;139.748;2023-07-28T11:49:12;101611.51;;;29.29;49.59
64115;BME280;62188;35.640;139.748;2023-07-28T11:51:38;101609.05;;;29.15;49.78
64115;BME280;62188;35.640;139.748;2023-07-28T11:53:59;101604.40;;;29.16;49.64
64115;BME280;62188;35.640;139.748;2023-07-28T11:56:28;101594.55;;;29.27;48.49
64115;BME280;62188;35.640;139.748;2023-07-28T11:58:53;101599.25;;;29.03;49.08
64115;BME280;62188;35.640;139.748;2023-07-28T12:01:16;101604.00;;;29.01;50.22
64115;BME280;62188;35.640;139.748;2023-07-28T12:03:41;101607.37;;;28.98;49.84
64115;BME280;62188;35.640;139.748;2023-07-28T12:06:07;101598.76;;;29.28;50.05
64115;BME280;62188;35.640;139.748;2023-07-28T12:08:37;101600.41;;;28.54;50.92
64115;BME280;62188;35.640;139.748;2023-07-28T12:10:57;101600.14;;;28.19;51.76
64115;BME280;62188;35.640;139.748;2023-07-28T12:13:22;101598.94;;;28.80;50.60
64115;BME280;62188;35.640;139.748;2023-07-28T12:15:48;101606.32;;;29.02;51.30
64115;BME280;62188;35.640;139.748;2023-07-28T12:18:14;101610.58;;;29.05;51.16
64115;BME280;62188;35.640;139.748;2023-07-28T12:20:40;101606.26;;;29.26;50.07
64115;BME280;62188;35.640;139.748;2023-07-28T12:23:03;101602.09;;;29.45;50.49
64115;BME280;62188;35.640;139.748;2023-07-28T12:25:30;101602.75;;;29.01;50.51
64115;BME280;62188;35.640;139.748;2023-07-28T12:27:55;101596.22;;;28.86;50.16
64115;BME280;62188;35.640;139.748;2023-07-28T12:30:20;101600.45;;;29.00;49.07